Overview Statistics Trail Chart Weather Telemetry Raw packets
 

This is the latest recevied weather packets stored in our database for station/object EA2RCU-15. If no packets are shown the sender has not sent any weather packets the latest 10 day(s).

<< 10 11 12 13 14 15 16 >>
Time Temp. Humidity Pressure Rain* Wind** Luminosity Snow
1788543904 26.11° C 51% 1007 hPa 0 mm - - -
1788543604 26.11° C 50% 1007 hPa 0 mm - - -
1788543304 27.22° C 47% 1007 hPa 0 mm - - -
1788543004 27.78° C 45% 1007 hPa 0 mm - - -
1788542704 28.33° C 43% 1006 hPa 0 mm - - -
1788542404 28.89° C 40% 1006 hPa 0 mm - - -
1788542104 30° C 38% 1006 hPa 0 mm - - -
1788541804 30.56° C 38% 1006 hPa 0 mm - - -
1788541504 31.11° C 36% 1006 hPa 0 mm - - -
1788541204 31.67° C 34% 1006 hPa 0 mm - - -
1788540904 31.67° C 33% 1006 hPa 0 mm - - -
1788540604 32.22° C 32% 1006 hPa 0 mm - - -
1788540304 31.11° C 33% 1006 hPa 0 mm - - -
1788540005 32.22° C 33% 1005 hPa 0 mm - - -
1788539704 31.11° C 35% 1005 hPa 0 mm - - -
1788539404 31.11° C 34% 1005 hPa 0 mm - - -
1788539104 31.67° C 32% 1005 hPa 0 mm - - -
1788538805 32.22° C 29% 1005 hPa 0 mm - - -
1788538504 34.44° C 26% 1005 hPa 0 mm - - -
1788538204 36.11° C 23% 1005 hPa 0 mm - - -
1788537904 37.22° C 20% 1005 hPa 0 mm - - -
1788537604 36.67° C 21% 1005 hPa 0 mm - - -
1788537304 36.67° C 21% 1005 hPa 0 mm - - -
1788537005 36.67° C 20% 1005 hPa 0 mm - - -
1788536705 38.33° C 17% 1005 hPa 0 mm - - -

* Rain latest hour (hover to see other rain measurements)
** Current wind speed in m/s (hover to see current wind gust speed)